Time;durP1;ratioP1;P1;durP2;ratioP2;P2;SDS_P1;SDS_P2;PMS_P1;PMS_P2;Temp;Humidity;BMP_temperature;BMP_pressure;BME280_temperature;BME280_humidity;BME280_pressure;Samples;Min_cycle;Max_cycle;Signal;HPM_P1;HPM_P2
2021/04/23 00:00:25;;;;;;;8.30;6.40;;;3.20;99.90;;;;;;3592607;39;20392;-76
2021/04/23 00:02:53;;;;;;;9.13;6.27;;;3.10;99.90;;;;;;3594440;39;21544;-75
2021/04/23 00:05:19;;;;;;;13.10;7.33;;;3.20;99.90;;;;;;3599694;39;20413;-75
2021/04/23 00:07:44;;;;;;;10.27;5.90;;;3.10;99.90;;;;;;3591326;39;20840;-76
2021/04/23 00:10:14;;;;;;;11.40;6.30;;;3.20;99.90;;;;;;3584962;39;20603;-76
2021/04/23 00:12:39;;;;;;;9.07;6.50;;;3.20;99.90;;;;;;3592959;39;21370;-76
2021/04/23 00:15:13;;;;;;;14.00;6.80;;;3.10;99.90;;;;;;3592529;39;20592;-75
2021/04/23 00:17:39;;;;;;;9.83;6.30;;;3.10;99.90;;;;;;3573379;39;20236;-76
2021/04/23 00:20:10;;;;;;;8.90;7.30;;;3.10;99.90;;;;;;3593471;39;20512;-76
2021/04/23 00:22:36;;;;;;;11.23;6.87;;;2.90;99.90;;;;;;3590138;39;20496;-76
2021/04/23 00:25:05;;;;;;;9.40;6.33;;;2.90;99.90;;;;;;3587893;39;20433;-76
2021/04/23 00:27:31;;;;;;;11.73;6.23;;;2.90;99.90;;;;;;3591542;39;20292;-76
2021/04/23 00:29:58;;;;;;;11.70;8.00;;;3.00;99.90;;;;;;3589701;39;20389;-76
2021/04/23 00:32:24;;;;;;;12.73;7.37;;;3.00;99.90;;;;;;3588198;39;20378;-75
2021/04/23 00:34:50;;;;;;;10.23;6.70;;;3.00;99.90;;;;;;3592216;39;20444;-76
2021/04/23 00:37:16;;;;;;;8.30;6.70;;;3.00;99.90;;;;;;3591310;39;20424;-76
2021/04/23 00:39:42;;;;;;;10.87;6.67;;;2.90;99.90;;;;;;3572462;39;20240;-76
2021/04/23 00:42:09;;;;;;;10.03;7.10;;;2.70;99.90;;;;;;3593331;39;20268;-76
2021/04/23 00:44:35;;;;;;;9.43;6.10;;;2.80;99.90;;;;;;3594463;39;20426;-76
2021/04/23 00:47:03;;;;;;;8.30;6.00;;;2.80;99.90;;;;;;3593485;39;20426;-76
2021/04/23 00:49:29;;;;;;;10.40;7.10;;;2.80;99.90;;;;;;3570776;39;20731;-76
2021/04/23 00:51:59;;;;;;;10.60;6.30;;;2.90;99.90;;;;;;3591127;39;20398;-76
2021/04/23 00:54:28;;;;;;;8.93;6.40;;;2.80;99.90;;;;;;3596243;39;20442;-76
2021/04/23 00:56:54;;;;;;;16.63;6.97;;;2.70;99.90;;;;;;3583450;39;20457;-76
2021/04/23 00:59:21;;;;;;;11.70;6.20;;;2.60;99.90;;;;;;3580095;39;20868;-76
2021/04/23 01:01:58;;;;;;;9.03;6.57;;;2.70;99.90;;;;;;3580206;39;20419;-76
2021/04/23 01:04:30;;;;;;;11.30;6.63;;;2.60;99.90;;;;;;3587519;39;20442;-76
2021/04/23 01:06:57;;;;;;;13.13;6.27;;;2.60;99.90;;;;;;3581770;39;20413;-76
2021/04/23 01:09:27;;;;;;;17.20;7.47;;;2.50;99.90;;;;;;3596587;39;20371;-76
2021/04/23 01:11:54;;;;;;;10.53;6.50;;;2.50;99.90;;;;;;3587257;39;20387;-76
2021/04/23 01:14:21;;;;;;;11.10;6.90;;;2.40;99.90;;;;;;3588196;39;20528;-76
2021/04/23 01:16:47;;;;;;;12.13;7.40;;;2.50;99.90;;;;;;3594324;39;20424;-76
2021/04/23 01:19:16;;;;;;;9.50;6.27;;;2.40;99.90;;;;;;3595594;39;20763;-76
2021/04/23 01:21:42;;;;;;;7.67;6.40;;;2.30;99.90;;;;;;3592568;39;20399;-76
2021/04/23 01:24:10;;;;;;;11.53;6.50;;;2.10;99.90;;;;;;3600817;39;20425;-76
2021/04/23 01:26:49;;;;;;;8.27;5.67;;;2.10;99.90;;;;;;3595717;39;20389;-76
2021/04/23 01:29:16;;;;;;;11.50;7.40;;;2.10;99.90;;;;;;3588242;39;20816;-76
2021/04/23 01:31:46;;;;;;;7.47;5.87;;;2.10;99.90;;;;;;3578735;39;20829;-76
2021/04/23 01:34:23;;;;;;;10.70;7.00;;;2.00;99.90;;;;;;3590805;39;20467;-76
2021/04/23 01:36:52;;;;;;;11.50;6.60;;;1.80;99.90;;;;;;3590255;39;20382;-76
2021/04/23 01:39:23;;;;;;;11.60;7.93;;;1.90;99.90;;;;;;3593427;39;20361;-76
2021/04/23 01:41:49;;;;;;;13.00;6.67;;;1.80;99.90;;;;;;3583045;39;20433;-76
2021/04/23 01:44:16;;;;;;;9.33;6.57;;;1.70;99.90;;;;;;3585298;39;20466;-76
2021/04/23 01:46:42;;;;;;;11.30;7.73;;;1.70;99.90;;;;;;3587313;39;20415;-76
2021/04/23 01:49:12;;;;;;;7.23;6.30;;;1.60;99.90;;;;;;3580773;39;20889;-76
2021/04/23 01:51:40;;;;;;;11.83;6.47;;;1.80;99.90;;;;;;3570883;39;20401;-76
2021/04/23 01:54:09;;;;;;;9.43;6.80;;;1.90;99.90;;;;;;3586373;39;20455;-76
2021/04/23 01:56:35;;;;;;;12.83;6.50;;;2.00;99.90;;;;;;3577799;39;20431;-76
2021/04/23 01:59:03;;;;;;;7.17;5.90;;;2.00;99.90;;;;;;3578627;39;20385;-77
2021/04/23 02:01:29;;;;;;;14.83;6.83;;;1.90;99.90;;;;;;3592836;39;20404;-76
2021/04/23 02:03:55;;;;;;;11.03;6.97;;;1.90;99.90;;;;;;3595194;39;20417;-76
2021/04/23 02:06:21;;;;;;;11.37;7.40;;;1.90;99.90;;;;;;3598313;39;20392;-76
2021/04/23 02:08:47;;;;;;;12.40;7.73;;;1.80;99.90;;;;;;3603159;39;20433;-76
2021/04/23 02:11:16;;;;;;;12.53;7.40;;;1.70;99.90;;;;;;3583948;39;20402;-76
2021/04/23 02:13:45;;;;;;;9.37;6.77;;;1.70;99.90;;;;;;3603799;39;20407;-76
2021/04/23 02:16:15;;;;;;;11.37;7.10;;;1.70;99.90;;;;;;3593285;39;20487;-76
2021/04/23 02:18:41;;;;;;;14.40;6.83;;;1.60;99.90;;;;;;3601290;39;20398;-76
2021/04/23 02:21:09;;;;;;;16.00;8.47;;;1.50;99.90;;;;;;3579959;39;20816;-76
2021/04/23 02:23:36;;;;;;;15.33;9.63;;;1.40;99.90;;;;;;3594278;39;20430;-76
2021/04/23 02:26:03;;;;;;;18.50;9.87;;;1.50;99.90;;;;;;3592613;39;20458;-76
2021/04/23 02:28:30;;;;;;;16.50;10.43;;;1.50;99.90;;;;;;3597163;39;20381;-76
2021/04/23 02:31:00;;;;;;;16.60;11.70;;;1.50;99.90;;;;;;3601744;39;20389;-76
2021/04/23 02:33:26;;;;;;;17.23;9.30;;;1.40;99.90;;;;;;3591597;39;20519;-76
2021/04/23 02:35:58;;;;;;;13.13;9.67;;;1.50;99.90;;;;;;3576599;39;20437;-76
2021/04/23 02:38:26;;;;;;;14.20;8.90;;;1.50;99.90;;;;;;3593825;39;20374;-76
2021/04/23 02:40:54;;;;;;;16.07;9.20;;;1.30;99.90;;;;;;3592437;39;20466;-76
2021/04/23 02:43:24;;;;;;;13.70;9.10;;;1.40;99.90;;;;;;3594134;39;20413;-76
2021/04/23 02:45:52;;;;;;;10.53;7.20;;;1.40;99.90;;;;;;3592467;39;20438;-77
2021/04/23 02:48:19;;;;;;;17.33;8.67;;;1.40;99.90;;;;;;3590004;39;20372;-76
2021/04/23 02:50:50;;;;;;;18.63;9.63;;;1.50;99.90;;;;;;3591605;39;20428;-76
2021/04/23 02:53:16;;;;;;;18.50;7.73;;;1.40;99.90;;;;;;3597855;39;20516;-76
2021/04/23 02:55:42;;;;;;;15.93;8.97;;;1.40;99.90;;;;;;3577350;39;20785;-76
2021/04/23 02:58:13;;;;;;;10.87;7.97;;;1.40;99.90;;;;;;3604178;39;20451;-76
2021/04/23 03:00:46;;;;;;;9.07;7.80;;;1.30;99.90;;;;;;3590114;39;20474;-76
2021/04/23 03:03:12;;;;;;;16.13;8.70;;;0.90;99.90;;;;;;3597731;39;20386;-75
2021/04/23 03:05:41;;;;;;;22.90;9.27;;;1.50;99.90;;;;;;3590129;39;20442;-76
2021/04/23 03:08:08;;;;;;;13.60;8.60;;;1.00;99.90;;;;;;3591608;39;20385;-75
2021/04/23 03:10:42;;;;;;;19.00;9.23;;;0.90;99.90;;;;;;3590911;39;20418;-75
2021/04/23 03:13:20;;;;;;;13.30;7.50;;;0.90;99.90;;;;;;3591572;39;20720;-76
2021/04/23 03:15:47;;;;;;;16.90;9.20;;;0.80;99.90;;;;;;3581712;39;20398;-75
2021/04/23 03:18:17;;;;;;;14.20;8.07;;;0.90;99.90;;;;;;3560577;39;20436;-75
2021/04/23 03:20:43;;;;;;;16.87;8.47;;;0.90;99.90;;;;;;3589305;39;20453;-75
2021/04/23 03:23:09;;;;;;;10.00;7.60;;;1.00;99.90;;;;;;3591392;39;20408;-76
2021/04/23 03:25:36;;;;;;;11.90;7.37;;;1.00;99.90;;;;;;3590638;39;20411;-76
2021/04/23 03:28:04;;;;;;;14.60;8.43;;;1.00;99.90;;;;;;3591509;39;20371;-76
2021/04/23 03:30:34;;;;;;;19.40;9.30;;;1.10;99.90;;;;;;3596247;39;20392;-76
2021/04/23 03:33:00;;;;;;;17.17;9.10;;;1.10;99.90;;;;;;3588123;39;20689;-76
2021/04/23 03:35:28;;;;;;;20.00;8.50;;;1.10;99.90;;;;;;3589805;39;20492;-76
2021/04/23 03:37:55;;;;;;;18.80;9.43;;;1.00;99.90;;;;;;3594106;39;21245;-76
2021/04/23 03:40:24;;;;;;;9.63;7.10;;;1.00;99.90;;;;;;3593844;39;21277;-77
2021/04/23 03:42:50;;;;;;;16.83;7.67;;;1.00;99.90;;;;;;3602426;39;20402;-76
2021/04/23 03:45:18;;;;;;;14.77;7.03;;;1.00;99.90;;;;;;3577737;39;21179;-76
2021/04/23 03:47:44;;;;;;;12.33;7.93;;;1.00;99.90;;;;;;3578841;39;20402;-76
2021/04/23 03:50:14;;;;;;;13.90;8.23;;;0.90;99.90;;;;;;3587160;39;20411;-77
2021/04/23 03:52:40;;;;;;;14.23;8.03;;;0.80;99.90;;;;;;3593712;39;20386;-77
2021/04/23 03:55:11;;;;;;;12.33;8.30;;;0.60;99.90;;;;;;3583035;39;20390;-77
2021/04/23 03:57:37;;;;;;;13.90;9.10;;;0.70;99.90;;;;;;3592189;39;20414;-77
2021/04/23 04:00:32;;;;;;;19.70;8.57;;;0.50;99.90;;;;;;3584831;39;20459;-77
2021/04/23 04:02:57;;;;;;;14.43;8.27;;;0.60;99.90;;;;;;3554189;40;21409;-77
2021/04/23 04:05:23;;;;;;;13.57;8.30;;;0.30;99.90;;;;;;3560412;39;20601;-77
2021/04/23 04:07:49;;;;;;;11.27;8.47;;;0.30;99.90;;;;;;3551470;40;20495;-77
2021/04/23 04:10:16;;;;;;;15.77;8.80;;;0.40;99.90;;;;;;3553363;40;20250;-77
2021/04/23 04:12:42;;;;;;;12.30;8.77;;;0.40;99.90;;;;;;3544444;40;20392;-77
2021/04/23 04:15:09;;;;;;;14.63;9.10;;;0.40;99.90;;;;;;3562548;40;20605;-77
2021/04/23 04:17:35;;;;;;;14.03;8.87;;;0.50;99.90;;;;;;3562105;40;20941;-77
2021/04/23 04:20:02;;;;;;;12.67;8.60;;;0.70;99.90;;;;;;3548428;40;20549;-76
2021/04/23 04:22:28;;;;;;;19.13;9.50;;;0.70;99.90;;;;;;3554047;40;20417;-76
2021/04/23 04:24:53;;;;;;;21.47;10.70;;;0.70;99.90;;;;;;3561543;40;20457;-76
2021/04/23 04:27:20;;;;;;;16.53;8.83;;;0.80;99.90;;;;;;3562363;40;20611;-76
2021/04/23 04:29:46;;;;;;;14.90;8.97;;;0.70;99.90;;;;;;3558746;40;20238;-77
2021/04/23 04:32:13;;;;;;;22.23;10.40;;;0.70;99.90;;;;;;3549185;40;20511;-76
2021/04/23 04:34:38;;;;;;;16.37;10.07;;;0.60;99.90;;;;;;3553342;40;20437;-76
2021/04/23 04:37:04;;;;;;;18.73;10.47;;;0.70;99.90;;;;;;3559882;40;20433;-76
2021/04/23 04:39:30;;;;;;;13.10;9.70;;;0.50;99.90;;;;;;3571811;39;20299;-77
2021/04/23 04:41:56;;;;;;;16.80;10.97;;;0.60;99.90;;;;;;3593129;39;20381;-76
2021/04/23 04:44:22;;;;;;;19.90;11.23;;;0.90;99.90;;;;;;3593339;39;20232;-76
2021/04/23 04:46:47;;;;;;;18.10;10.97;;;0.90;99.90;;;;;;3586225;39;20414;-77
2021/04/23 04:49:13;;;;;;;25.20;13.30;;;0.70;99.90;;;;;;3592137;39;20403;-77
2021/04/23 04:51:39;;;;;;;21.83;12.00;;;0.90;99.90;;;;;;3581206;39;20241;-76
2021/04/23 04:54:05;;;;;;;18.77;10.90;;;1.00;99.90;;;;;;3591858;39;20505;-76
2021/04/23 04:56:31;;;;;;;15.70;10.13;;;1.20;99.90;;;;;;3571395;39;20678;-77
2021/04/23 04:58:57;;;;;;;19.73;10.50;;;1.20;99.90;;;;;;3594839;39;21031;-76
2021/04/23 05:01:23;;;;;;;17.73;11.10;;;1.30;99.90;;;;;;3578461;39;20457;-77
2021/04/23 05:03:49;;;;;;;16.33;9.90;;;1.40;99.90;;;;;;3595524;39;20382;-76
2021/04/23 05:06:15;;;;;;;16.90;10.73;;;1.50;99.90;;;;;;3578701;39;20804;-76
2021/04/23 05:08:41;;;;;;;22.47;10.20;;;1.60;99.90;;;;;;3583805;39;20607;-77
2021/04/23 05:11:07;;;;;;;19.83;10.83;;;1.60;99.90;;;;;;3591685;39;20424;-77
2021/04/23 05:13:33;;;;;;;19.00;11.20;;;1.80;99.90;;;;;;3593492;39;20228;-77
2021/04/23 05:15:59;;;;;;;19.73;11.30;;;1.90;99.90;;;;;;3591826;39;20431;-76
2021/04/23 05:18:25;;;;;;;16.27;10.07;;;2.00;99.90;;;;;;3574626;39;20429;-77
2021/04/23 05:20:52;;;;;;;30.13;13.00;;;2.10;99.90;;;;;;3579575;39;20427;-77
2021/04/23 05:23:18;;;;;;;16.13;9.23;;;2.40;99.90;;;;;;3568102;39;20413;-77
2021/04/23 05:25:46;;;;;;;19.10;10.57;;;2.70;99.90;;;;;;3589168;39;21287;-77
2021/04/23 05:28:13;;;;;;;18.10;9.90;;;3.10;99.90;;;;;;3574850;39;20394;-77
2021/04/23 05:30:39;;;;;;;20.37;10.83;;;3.50;99.90;;;;;;3591174;39;20429;-77
2021/04/23 05:33:07;;;;;;;15.77;10.10;;;4.00;99.90;;;;;;3585192;39;20381;-77
2021/04/23 05:35:33;;;;;;;15.77;8.97;;;4.50;99.90;;;;;;3585609;39;20525;-77
2021/04/23 05:38:00;;;;;;;16.40;10.57;;;5.20;99.90;;;;;;3591979;39;20388;-77
2021/04/23 05:40:31;;;;;;;12.37;9.60;;;5.50;99.90;;;;;;3578248;39;20398;-77
2021/04/23 05:42:57;;;;;;;15.37;11.30;;;5.80;99.90;;;;;;3591881;39;20390;-77
2021/04/23 05:45:24;;;;;;;17.03;10.83;;;6.20;99.90;;;;;;3586394;39;20392;-77
2021/04/23 05:47:51;;;;;;;21.07;10.67;;;7.00;99.90;;;;;;3592187;39;21033;-76
2021/04/23 05:50:18;;;;;;;20.07;11.40;;;7.70;99.90;;;;;;3598832;39;20467;-77
2021/04/23 05:52:45;;;;;;;14.87;10.10;;;7.70;95.30;;;;;;3591379;39;20485;-77
2021/04/23 05:55:13;;;;;;;14.07;9.70;;;8.30;66.70;;;;;;3587427;39;20466;-77
2021/04/23 05:57:40;;;;;;;16.90;9.13;;;8.90;1.00;;;;;;3584966;39;20396;-77
2021/04/23 06:00:11;;;;;;;16.53;9.10;;;9.00;41.50;;;;;;3582446;39;20409;-77
2021/04/23 06:02:37;;;;;;;19.13;10.63;;;9.00;70.10;;;;;;3583082;39;20459;-76
2021/04/23 06:05:05;;;;;;;12.60;8.80;;;8.60;45.00;;;;;;3580194;39;20685;-77
2021/04/23 06:07:31;;;;;;;20.10;10.30;;;8.90;99.90;;;;;;3581160;39;20233;-77
2021/04/23 06:09:57;;;;;;;14.20;9.87;;;8.90;1.00;;;;;;3580138;39;20548;-76
2021/04/23 06:12:22;;;;;;;12.10;8.30;;;8.90;1.00;;;;;;3592683;39;20669;-76
2021/04/23 06:14:48;;;;;;;12.70;9.87;;;8.20;69.10;;;;;;3574538;39;20497;-77
2021/04/23 06:17:14;;;;;;;17.67;9.80;;;8.70;30.80;;;;;;3574346;39;20229;-77
2021/04/23 06:19:40;;;;;;;15.00;8.03;;;10.40;1.00;;;;;;3587497;39;20644;-77
2021/04/23 06:22:08;;;;;;;14.20;8.60;;;10.00;1.00;;;;;;3593171;39;21908;-77
2021/04/23 06:24:35;;;;;;;12.60;9.07;;;10.90;1.00;;;;;;3594535;39;20455;-77
2021/04/23 06:27:01;;;;;;;16.63;9.37;;;10.60;1.00;;;;;;3596341;39;20455;-76
2021/04/23 06:29:28;;;;;;;13.97;8.20;;;10.90;1.00;;;;;;3587370;39;20418;-77
2021/04/23 06:31:57;;;;;;;13.97;10.00;;;10.60;1.00;;;;;;3587570;39;21296;-77
2021/04/23 06:34:23;;;;;;;15.23;11.03;;;10.70;1.00;;;;;;3595374;39;20412;-77
2021/04/23 06:36:50;;;;;;;16.30;10.70;;;11.00;99.90;;;;;;3583171;39;20408;-77
2021/04/23 06:39:18;;;;;;;11.83;8.77;;;10.90;1.00;;;;;;3576068;39;20224;-77
2021/04/23 06:41:47;;;;;;;13.70;9.03;;;11.10;99.90;;;;;;3584988;39;20482;-77
2021/04/23 06:44:15;;;;;;;27.23;10.20;;;10.90;1.00;;;;;;3583858;39;20419;-76
2021/04/23 06:46:41;;;;;;;13.90;9.60;;;10.20;1.00;;;;;;3579383;39;20416;-76
2021/04/23 06:49:07;;;;;;;21.80;10.30;;;10.60;99.90;;;;;;3590996;39;20387;-76
2021/04/23 06:51:36;;;;;;;21.37;10.50;;;10.40;99.90;;;;;;3601195;39;20496;-76
2021/04/23 06:54:03;;;;;;;20.00;10.13;;;11.80;1.00;;;;;;3594310;39;20505;-77
2021/04/23 06:56:29;;;;;;;19.07;9.67;;;11.50;1.00;;;;;;3590794;39;21169;-76
2021/04/23 06:58:55;;;;;;;14.23;8.37;;;11.20;1.00;;;;;;3580740;39;20431;-77
2021/04/23 07:01:21;;;;;;;11.40;8.00;;;11.50;99.90;;;;;;3597512;39;20442;-76
2021/04/23 07:03:47;;;;;;;21.17;8.70;;;11.50;99.90;;;;;;3595084;39;20277;-78
2021/04/23 07:06:13;;;;;;;17.20;9.30;;;10.60;1.00;;;;;;3568410;39;20559;-78
2021/04/23 07:08:40;;;;;;;13.17;8.63;;;10.10;99.90;;;;;;3585743;39;20536;-78
2021/04/23 07:11:06;;;;;;;13.50;6.70;;;11.40;1.00;;;;;;3588031;39;20237;-76
2021/04/23 07:13:33;;;;;;;12.50;6.50;;;12.00;99.90;;;;;;3586974;39;20422;-77
2021/04/23 07:16:00;;;;;;;12.50;6.00;;;12.10;1.00;;;;;;3580939;39;20427;-78
2021/04/23 07:18:27;;;;;;;13.07;5.80;;;12.10;99.90;;;;;;3587050;39;20410;-77
2021/04/23 07:20:55;;;;;;;5.37;4.87;;;12.10;1.00;;;;;;3580030;39;20412;-78
2021/04/23 07:23:21;;;;;;;5.37;4.87;;;11.00;99.90;;;;;;3578700;39;20423;-77
2021/04/23 07:25:47;;;;;;;5.20;4.70;;;12.60;99.90;;;;;;3593581;39;20398;-77
2021/04/23 07:28:13;;;;;;;9.73;6.43;;;12.90;99.90;;;;;;3578506;39;21686;-76
2021/04/23 07:30:41;;;;;;;6.30;4.00;;;13.10;99.90;;;;;;3591528;39;20419;-78
2021/04/23 07:33:12;;;;;;;6.43;5.03;;;10.80;99.90;;;;;;3582940;39;20406;-76
2021/04/23 07:35:41;;;;;;;12.93;4.77;;;9.30;99.90;;;;;;3583734;39;20457;-76
2021/04/23 07:38:09;;;;;;;8.03;4.67;;;8.80;1.00;;;;;;3572395;39;20450;-77
2021/04/23 07:40:35;;;;;;;5.83;5.23;;;8.80;99.90;;;;;;3575376;39;20440;-77
2021/04/23 07:43:02;;;;;;;14.67;6.40;;;9.70;1.00;;;;;;3588952;39;20806;-77
2021/04/23 07:45:28;;;;;;;9.17;5.67;;;11.80;99.90;;;;;;3591767;39;20896;-77
2021/04/23 07:47:56;;;;;;;9.70;5.77;;;13.60;99.90;;;;;;3591114;39;21266;-77
2021/04/23 07:50:24;;;;;;;8.97;4.10;;;12.90;93.60;;;;;;3588121;39;20420;-77
2021/04/23 07:52:52;;;;;;;8.53;4.00;;;9.40;90.70;;;;;;3594618;39;20404;-77
2021/04/23 07:55:20;;;;;;;6.47;5.63;;;9.00;99.90;;;;;;3592729;39;20464;-78
2021/04/23 07:57:48;;;;;;;7.57;6.40;;;8.80;99.90;;;;;;3590543;39;20469;-77
2021/04/23 08:00:16;;;;;;;12.83;6.50;;;9.40;1.00;;;;;;3595849;39;20399;-77
2021/04/23 08:02:43;;;;;;;15.70;6.93;;;9.60;1.00;;;;;;3592668;39;20505;-77
2021/04/23 08:05:11;;;;;;;6.97;6.37;;;9.70;1.00;;;;;;3578641;39;20406;-76
2021/04/23 08:07:37;;;;;;;5.37;4.20;;;12.10;99.90;;;;;;3596558;39;20416;-76
2021/04/23 08:10:04;;;;;;;9.57;7.27;;;9.90;99.90;;;;;;3585784;39;20414;-77
2021/04/23 08:12:30;;;;;;;6.10;4.90;;;10.50;99.90;;;;;;3596155;39;20224;-75
2021/04/23 08:14:56;;;;;;;10.50;5.77;;;9.70;99.90;;;;;;3580886;39;20430;-77
2021/04/23 08:17:24;;;;;;;6.80;6.20;;;10.80;99.90;;;;;;3573270;39;20466;-77
2021/04/23 08:19:51;;;;;;;8.70;5.50;;;11.60;59.80;;;;;;3599223;39;20761;-76
2021/04/23 08:22:18;;;;;;;8.50;6.80;;;11.10;46.80;;;;;;3596787;39;20423;-75
2021/04/23 08:24:44;;;;;;;8.97;5.60;;;11.30;41.10;;;;;;3580332;39;20513;-76
2021/04/23 08:27:10;;;;;;;10.70;5.17;;;10.40;44.30;;;;;;3587031;39;20449;-76
2021/04/23 08:29:36;;;;;;;6.53;5.93;;;10.40;43.10;;;;;;3575391;39;20390;-76
2021/04/23 08:32:03;;;;;;;6.07;5.57;;;10.20;32.60;;;;;;3587239;39;20398;-77
2021/04/23 08:34:29;;;;;;;9.20;7.70;;;10.00;38.40;;;;;;3601618;39;20823;-76
2021/04/23 08:37:02;;;;;;;6.90;4.97;;;11.70;50.40;;;;;;3591200;39;20411;-76
2021/04/23 08:39:28;;;;;;;8.77;5.07;;;12.40;28.10;;;;;;3590985;39;20232;-78
2021/04/23 08:41:54;;;;;;;5.70;4.33;;;10.60;7.20;;;;;;3582280;39;20414;-76
2021/04/23 08:44:20;;;;;;;11.97;7.60;;;10.50;16.30;;;;;;3589463;39;20245;-77
2021/04/23 08:46:48;;;;;;;7.57;6.70;;;13.40;19.40;;;;;;3594800;39;20458;-78
2021/04/23 08:49:17;;;;;;;4.93;4.53;;;12.40;1.00;;;;;;3573445;39;20423;-78
2021/04/23 08:51:44;;;;;;;8.17;7.27;;;10.90;1.00;;;;;;3599466;39;20422;-76
2021/04/23 08:54:11;;;;;;;7.90;5.03;;;14.00;1.00;;;;;;3582361;39;20395;-78
2021/04/23 08:56:37;;;;;;;10.70;7.80;;;12.00;1.00;;;;;;3590900;39;20414;-77
2021/04/23 08:59:03;;;;;;;10.47;7.30;;;12.10;1.00;;;;;;3594696;39;20469;-77
2021/04/23 09:01:30;;;;;;;10.60;6.93;;;14.20;1.00;;;;;;3596355;39;20463;-77
2021/04/23 09:03:57;;;;;;;7.93;7.17;;;14.00;1.00;;;;;;3606032;39;20443;-77
2021/04/23 09:06:26;;;;;;;9.00;6.93;;;14.80;1.00;;;;;;3586815;39;20447;-78
2021/04/23 09:09:09;;;;;;;13.40;7.23;;;14.20;1.00;;;;;;3585966;39;20431;-77
2021/04/23 09:11:42;;;;;;;12.83;7.43;;;14.30;1.00;;;;;;3572743;39;20410;-77
2021/04/23 09:14:11;;;;;;;11.60;7.37;;;14.00;1.00;;;;;;3596136;39;20815;-77
2021/04/23 09:16:47;;;;;;;10.93;6.93;;;13.90;1.00;;;;;;3596048;39;20395;-78
2021/04/23 09:19:23;;;;;;;7.63;5.93;;;14.20;1.00;;;;;;3588250;39;20425;-77
2021/04/23 09:21:57;;;;;;;14.20;6.93;;;13.00;1.00;;;;;;3595595;39;20414;-76
2021/04/23 09:24:38;;;;;;;7.77;7.07;;;13.60;1.00;;;;;;3593207;39;20422;-76
2021/04/23 09:27:16;;;;;;;9.37;7.33;;;15.30;1.00;;;;;;3596646;39;20408;-78
2021/04/23 09:29:44;;;;;;;9.90;6.80;;;12.50;1.00;;;;;;3595956;39;20445;-76
2021/04/23 09:32:14;;;;;;;6.70;6.00;;;14.50;1.00;;;;;;3581374;39;20481;-76
2021/04/23 09:34:49;;;;;;;7.73;6.90;;;14.90;1.00;;;;;;3571600;39;20443;-75
2021/04/23 09:37:17;;;;;;;8.17;6.50;;;15.20;1.00;;;;;;3597078;39;20409;-78
2021/04/23 09:39:45;;;;;;;22.73;7.70;;;13.90;1.00;;;;;;3594709;39;20410;-76
2021/04/23 09:42:11;;;;;;;8.97;7.60;;;15.30;1.00;;;;;;3580421;39;20387;-76
2021/04/23 09:44:39;;;;;;;6.90;6.30;;;16.00;1.00;;;;;;3596085;39;20450;-77
2021/04/23 09:47:14;;;;;;;10.27;6.77;;;15.80;1.00;;;;;;3589712;39;22662;-77
2021/04/23 09:49:42;;;;;;;9.73;7.00;;;15.90;1.00;;;;;;3572307;39;20397;-76
2021/04/23 09:52:10;;;;;;;6.87;6.27;;;15.00;1.00;;;;;;3597714;39;20407;-77
2021/04/23 09:54:38;;;;;;;9.20;6.37;;;15.90;1.00;;;;;;3594569;39;20464;-77
2021/04/23 09:57:30;;;;;;;7.50;5.90;;;15.10;1.00;;;;;;3587873;39;20415;-77
2021/04/23 09:59:58;;;;;;;8.60;7.60;;;15.60;1.00;;;;;;3589980;39;20426;-76
2021/04/23 10:02:26;;;;;;;9.23;7.03;;;15.90;1.00;;;;;;3597574;39;20454;-77
2021/04/23 10:04:53;;;;;;;8.40;7.03;;;15.20;1.00;;;;;;3597207;39;20428;-76
2021/04/23 10:07:26;;;;;;;8.30;6.90;;;15.00;1.00;;;;;;3587711;39;20563;-76
2021/04/23 10:09:54;;;;;;;8.40;7.43;;;16.50;1.00;;;;;;3593269;39;20423;-76
2021/04/23 10:12:53;;;;;;;7.40;6.80;;;15.50;1.00;;;;;;3587447;39;20488;-77
2021/04/23 10:15:23;;;;;;;8.80;7.67;;;16.00;1.00;;;;;;3595475;39;20428;-77
2021/04/23 10:17:56;;;;;;;9.80;7.20;;;15.60;1.00;;;;;;3596461;39;20395;-77
2021/04/23 10:20:26;;;;;;;11.30;7.70;;;15.70;1.00;;;;;;3596788;39;20411;-77
2021/04/23 10:22:52;;;;;;;13.87;7.70;;;16.00;1.00;;;;;;3595643;39;20421;-77
2021/04/23 10:25:21;;;;;;;7.37;6.77;;;16.20;1.00;;;;;;3587045;39;20452;-77
2021/04/23 10:27:50;;;;;;;11.83;7.70;;;16.30;1.00;;;;;;3595668;39;20404;-77
2021/04/23 10:30:24;;;;;;;9.83;7.60;;;14.90;1.00;;;;;;3595241;39;20495;-77
2021/04/23 10:32:54;;;;;;;16.50;7.70;;;16.90;1.00;;;;;;3588091;39;20405;-77
2021/04/23 10:35:23;;;;;;;9.87;7.30;;;16.90;1.00;;;;;;3581042;39;20419;-77
2021/04/23 10:37:49;;;;;;;8.33;6.83;;;16.40;1.00;;;;;;3598193;39;20415;-77
2021/04/23 10:40:21;;;;;;;8.70;7.90;;;15.80;1.00;;;;;;3594920;39;20407;-77
2021/04/23 10:42:53;;;;;;;9.60;7.57;;;16.80;1.00;;;;;;3595971;39;20409;-77
2021/04/23 10:45:22;;;;;;;9.33;7.23;;;15.80;1.00;;;;;;3592591;39;20424;-77
2021/04/23 10:47:55;;;;;;;9.87;7.70;;;16.30;1.00;;;;;;3590328;39;20481;-77
2021/04/23 10:50:25;;;;;;;14.23;7.83;;;16.30;1.00;;;;;;3592129;39;20919;-77
2021/04/23 10:53:06;;;;;;;10.60;7.10;;;15.90;1.00;;;;;;3579374;39;20419;-77
2021/04/23 10:55:54;;;;;;;8.47;7.67;;;16.30;1.00;;;;;;3574340;39;20414;-76
2021/04/23 10:58:27;;;;;;;8.80;6.50;;;17.80;1.00;;;;;;3584407;39;20770;-76
2021/04/23 11:01:14;;;;;;;8.63;7.73;;;15.90;1.00;;;;;;3583650;39;23059;-77
2021/04/23 11:03:41;;;;;;;10.03;8.00;;;16.60;1.00;;;;;;3591111;39;20799;-76
2021/04/23 11:06:12;;;;;;;9.10;7.23;;;15.90;1.00;;;;;;3596224;39;20437;-76
2021/04/23 11:08:59;;;;;;;10.67;7.50;;;17.20;1.00;;;;;;3592352;39;20407;-76
2021/04/23 11:11:34;;;;;;;7.47;6.77;;;17.60;1.00;;;;;;3584830;39;20480;-76
2021/04/23 11:14:20;;;;;;;8.00;7.20;;;16.60;1.00;;;;;;3590907;39;20430;-76
2021/04/23 11:16:49;;;;;;;8.13;7.33;;;17.50;1.00;;;;;;3590957;39;21153;-76
2021/04/23 11:19:21;;;;;;;17.70;7.17;;;17.60;1.00;;;;;;3581037;39;20710;-76
2021/04/23 11:22:02;;;;;;;8.80;7.27;;;17.80;1.00;;;;;;3600011;39;20409;-76
2021/04/23 11:24:28;;;;;;;8.33;7.40;;;18.80;1.00;;;;;;3581785;39;20399;-77
2021/04/23 11:26:54;;;;;;;8.33;7.57;;;17.00;1.00;;;;;;3589455;39;21496;-77
2021/04/23 11:29:30;;;;;;;12.47;6.57;;;16.30;1.00;;;;;;3590307;39;20811;-78
2021/04/23 11:32:15;;;;;;;10.10;7.77;;;15.80;1.00;;;;;;3589764;39;20508;-76
2021/04/23 11:34:45;;;;;;;8.00;7.43;;;15.80;1.00;;;;;;3591652;39;20400;-76
2021/04/23 11:37:16;;;;;;;6.53;5.90;;;17.50;1.00;;;;;;3594392;39;20485;-76
2021/04/23 11:39:47;;;;;;;6.80;6.20;;;16.80;1.00;;;;;;3587903;39;20393;-76
2021/04/23 11:42:47;;;;;;;7.20;6.57;;;17.50;1.00;;;;;;3590677;39;20447;-76
2021/04/23 11:45:18;;;;;;;7.03;6.27;;;17.20;1.00;;;;;;3578009;39;20392;-76
2021/04/23 11:47:51;;;;;;;8.53;7.67;;;18.70;1.00;;;;;;3582345;39;21196;-77
2021/04/23 11:50:21;;;;;;;9.00;6.30;;;16.30;1.00;;;;;;3591301;39;20681;-76
2021/04/23 11:53:04;;;;;;;13.80;7.57;;;16.20;1.00;;;;;;3576200;39;20422;-76
2021/04/23 11:55:34;;;;;;;11.90;6.60;;;16.60;1.00;;;;;;3591130;39;20404;-76
2021/04/23 11:58:05;;;;;;;6.43;5.93;;;17.70;1.00;;;;;;3592275;39;20412;-77
2021/04/23 12:00:32;;;;;;;7.37;6.37;;;15.80;1.00;;;;;;3587886;39;20436;-77
2021/04/23 12:02:58;;;;;;;10.40;7.00;;;16.10;1.00;;;;;;3588385;39;21152;-76
2021/04/23 12:05:34;;;;;;;7.80;6.30;;;16.90;1.00;;;;;;3588315;39;21169;-77
2021/04/23 12:08:05;;;;;;;7.10;6.40;;;16.40;1.00;;;;;;3597456;39;20513;-77
2021/04/23 12:10:33;;;;;;;6.77;6.03;;;18.90;1.00;;;;;;3601506;39;20416;-77
2021/04/23 12:13:00;;;;;;;9.50;7.07;;;16.90;1.00;;;;;;3599904;39;20427;-76
2021/04/23 12:15:29;;;;;;;10.07;7.00;;;16.40;1.00;;;;;;3576217;39;20373;-76
2021/04/23 12:17:56;;;;;;;9.00;8.30;;;17.00;1.00;;;;;;3598038;39;20407;-77
2021/04/23 12:20:28;;;;;;;7.77;7.00;;;17.90;1.00;;;;;;3584788;39;20699;-76
2021/04/23 12:22:54;;;;;;;10.80;7.37;;;17.80;1.00;;;;;;3580185;39;20422;-77
2021/04/23 12:25:41;;;;;;;9.27;7.80;;;16.80;1.00;;;;;;3577435;39;20399;-77
2021/04/23 12:28:22;;;;;;;7.90;7.17;;;17.60;1.00;;;;;;3593894;39;20410;-77
2021/04/23 12:30:55;;;;;;;11.90;7.93;;;18.00;1.00;;;;;;3587344;39;20427;-77
2021/04/23 12:33:22;;;;;;;11.20;7.23;;;17.70;1.00;;;;;;3588641;39;20835;-77
2021/04/23 12:35:51;;;;;;;13.07;8.10;;;17.60;1.00;;;;;;3582804;39;20454;-77
2021/04/23 12:38:36;;;;;;;8.57;7.73;;;17.10;1.00;;;;;;3586157;39;20485;-77
2021/04/23 12:41:16;;;;;;;8.27;7.67;;;16.00;1.00;;;;;;3582175;39;20454;-77
2021/04/23 12:43:42;;;;;;;8.97;8.10;;;17.30;1.00;;;;;;3583916;39;20498;-76
2021/04/23 12:46:20;;;;;;;9.27;8.40;;;18.00;1.00;;;;;;3579159;39;20904;-78
2021/04/23 12:48:58;;;;;;;7.57;6.83;;;18.10;1.00;;;;;;3600759;39;20496;-76
2021/04/23 12:51:27;;;;;;;7.10;6.50;;;16.90;1.00;;;;;;3576535;39;20434;-77
2021/04/23 12:53:53;;;;;;;8.37;7.33;;;16.00;1.00;;;;;;3576657;39;21296;-76
2021/04/23 12:56:24;;;;;;;8.67;7.93;;;16.80;1.00;;;;;;3593465;39;20537;-76